createdAt,value
2018-06-18T00:02:28.370Z,17.80
2018-06-18T00:04:56.861Z,17.70
2018-06-18T00:07:25.281Z,17.60
2018-06-18T00:09:53.732Z,17.70
2018-06-18T00:12:22.164Z,17.70
2018-06-18T00:14:50.598Z,17.70
2018-06-18T00:17:19.120Z,17.80
2018-06-18T00:19:47.550Z,17.80
2018-06-18T00:22:16.839Z,17.70
2018-06-18T00:24:47.608Z,17.60
2018-06-18T00:27:16.019Z,17.70
2018-06-18T00:29:44.591Z,17.70
2018-06-18T00:32:12.989Z,17.60
2018-06-18T00:34:41.699Z,17.60
2018-06-18T00:37:10.385Z,17.50
2018-06-18T00:39:38.962Z,17.60
2018-06-18T00:42:07.796Z,17.60
2018-06-18T00:44:36.344Z,17.60
2018-06-18T00:47:04.811Z,17.60
2018-06-18T00:49:33.240Z,17.60
2018-06-18T00:52:01.699Z,17.60
2018-06-18T00:54:30.146Z,17.60
2018-06-18T00:56:58.561Z,17.60
2018-06-18T00:59:27.026Z,17.60
2018-06-18T01:04:23.603Z,17.60
2018-06-18T01:06:52.055Z,17.60
2018-06-18T01:09:20.440Z,17.60
2018-06-18T01:11:48.907Z,17.60
2018-06-18T01:14:19.920Z,17.60
2018-06-18T01:16:48.435Z,17.60
2018-06-18T01:19:16.854Z,17.60
2018-06-18T01:21:45.624Z,17.50
2018-06-18T01:24:23.290Z,17.50
2018-06-18T01:26:51.769Z,17.50
2018-06-18T01:29:20.196Z,17.60
2018-06-18T01:31:48.641Z,17.60
2018-06-18T01:34:22.689Z,17.60
2018-06-18T01:36:51.178Z,17.60
2018-06-18T01:39:19.832Z,17.60
2018-06-18T01:41:48.290Z,17.50
2018-06-18T01:44:16.732Z,17.50
2018-06-18T01:46:45.174Z,17.50
2018-06-18T01:49:13.594Z,17.40
2018-06-18T01:51:42.128Z,17.40
2018-06-18T01:54:10.683Z,17.40
2018-06-18T01:56:39.159Z,17.40
2018-06-18T01:59:07.611Z,17.40
2018-06-18T02:01:36.042Z,17.40
2018-06-18T02:04:04.489Z,17.40
2018-06-18T02:06:32.933Z,17.40
2018-06-18T02:09:01.404Z,17.40
2018-06-18T02:11:29.861Z,17.40
2018-06-18T02:13:58.267Z,17.40
2018-06-18T02:16:26.779Z,17.40
2018-06-18T02:18:55.605Z,17.40
2018-06-18T02:21:24.032Z,17.40
2018-06-18T02:26:20.584Z,17.30
2018-06-18T02:28:54.495Z,17.30
2018-06-18T02:31:28.342Z,17.30
2018-06-18T02:34:02.175Z,17.20
2018-06-18T02:36:36.054Z,17.20
2018-06-18T02:39:12.164Z,17.20
2018-06-18T02:41:41.176Z,17.20
2018-06-18T02:44:09.680Z,17.20
2018-06-18T02:46:38.359Z,17.20
2018-06-18T02:49:06.915Z,17.20
2018-06-18T02:51:42.082Z,17.20
2018-06-18T02:54:10.505Z,17.10
2018-06-18T02:56:56.772Z,17.10
2018-06-18T02:59:25.225Z,17.10
2018-06-18T03:01:53.662Z,17.10
2018-06-18T03:04:22.121Z,17.10
2018-06-18T03:06:50.558Z,17.10
2018-06-18T03:09:19.013Z,17.00
2018-06-18T03:11:47.423Z,17.10
2018-06-18T03:14:15.940Z,17.00
2018-06-18T03:16:44.445Z,17.00
2018-06-18T03:19:18.179Z,17.10
2018-06-18T03:21:52.023Z,17.10
2018-06-18T03:24:25.667Z,17.00
2018-06-18T03:26:59.450Z,17.00
2018-06-18T03:29:30.956Z,17.10
2018-06-18T03:32:00.966Z,17.00
2018-06-18T03:34:29.388Z,17.00
2018-06-18T03:36:58.815Z,17.00
2018-06-18T03:39:27.279Z,17.00
2018-06-18T03:41:55.799Z,17.00
2018-06-18T03:44:34.945Z,17.00
2018-06-18T03:47:08.403Z,17.00
2018-06-18T03:49:36.875Z,17.00
2018-06-18T03:52:05.319Z,17.00
2018-06-18T03:54:33.789Z,17.00
2018-06-18T03:57:02.197Z,17.00
2018-06-18T03:59:30.641Z,16.90
2018-06-18T04:02:12.471Z,16.90
2018-06-18T04:04:49.939Z,16.90
2018-06-18T04:07:24.820Z,16.90
2018-06-18T04:09:58.793Z,16.90
2018-06-18T04:12:27.224Z,16.90
2018-06-18T04:14:55.688Z,16.80
2018-06-18T04:17:26.185Z,16.90
2018-06-18T04:19:54.909Z,16.80
2018-06-18T04:22:23.371Z,16.70
2018-06-18T04:24:51.857Z,16.70
2018-06-18T04:27:20.258Z,16.60
2018-06-18T04:29:48.703Z,16.70
2018-06-18T04:32:17.212Z,17.20
2018-06-18T04:34:48.879Z,17.80
2018-06-18T04:37:17.299Z,18.30
2018-06-18T04:39:45.734Z,18.70
2018-06-18T04:42:19.640Z,18.90
2018-06-18T04:45:51.163Z,19.20
2018-06-18T04:48:24.825Z,19.70
2018-06-18T04:50:58.695Z,19.40
2018-06-18T04:53:27.120Z,19.70
2018-06-18T04:55:55.679Z,19.90
2018-06-18T04:58:24.091Z,19.70
2018-06-18T05:00:58.625Z,20.00
2018-06-18T05:03:27.052Z,20.30
2018-06-18T05:05:55.558Z,20.30
2018-06-18T05:08:32.496Z,20.30
2018-06-18T05:11:00.920Z,20.50
2018-06-18T05:13:29.337Z,20.60
2018-06-18T05:15:57.778Z,20.80
2018-06-18T05:18:26.214Z,20.80
2018-06-18T05:20:54.667Z,20.60
2018-06-18T05:23:23.111Z,20.40
2018-06-18T05:25:54.580Z,19.90
2018-06-18T05:28:23.033Z,19.80
2018-06-18T05:30:51.499Z,19.40
2018-06-18T05:33:19.926Z,19.00
2018-06-18T05:35:48.387Z,19.00
2018-06-18T05:38:30.863Z,18.90
2018-06-18T05:40:59.968Z,18.80
2018-06-18T05:43:29.079Z,18.60
2018-06-18T05:45:57.522Z,18.60
2018-06-18T05:48:25.996Z,18.50
2018-06-18T05:50:54.498Z,18.60
2018-06-18T05:53:22.935Z,18.70
2018-06-18T05:55:51.418Z,18.80
2018-06-18T05:58:19.898Z,18.50
2018-06-18T06:00:48.548Z,18.20
2018-06-18T06:03:17.003Z,18.30
2018-06-18T06:05:45.448Z,18.30
2018-06-18T06:08:13.902Z,18.30
2018-06-18T06:10:42.352Z,18.30
2018-06-18T06:13:11.231Z,18.40
2018-06-18T06:15:39.908Z,18.50
2018-06-18T06:18:08.641Z,18.60
2018-06-18T06:20:40.316Z,18.70
2018-06-18T06:23:08.830Z,18.80
2018-06-18T06:25:37.264Z,18.90
2018-06-18T06:28:05.712Z,18.80
2018-06-18T06:30:34.122Z,19.00
2018-06-18T06:33:02.578Z,18.70
2018-06-18T06:35:33.750Z,18.70
2018-06-18T06:38:02.184Z,18.80
2018-06-18T06:40:30.615Z,18.70
2018-06-18T06:42:59.036Z,18.90
2018-06-18T06:45:27.551Z,18.90
2018-06-18T06:47:56.083Z,18.90
2018-06-18T06:50:24.491Z,19.00
2018-06-18T06:52:52.950Z,19.10
2018-06-18T06:55:22.044Z,19.20
2018-06-18T06:57:50.490Z,19.00
2018-06-18T07:00:18.935Z,19.00
2018-06-18T07:02:47.382Z,19.10
2018-06-18T07:05:15.829Z,19.10
2018-06-18T07:07:44.277Z,19.00
2018-06-18T07:10:12.733Z,19.20
2018-06-18T07:12:41.812Z,19.50
2018-06-18T07:15:10.314Z,19.40
2018-06-18T07:17:40.047Z,19.30
2018-06-18T07:20:08.596Z,19.30
2018-06-18T07:22:37.157Z,19.30
2018-06-18T07:25:05.615Z,19.20
2018-06-18T07:27:34.100Z,19.30
2018-06-18T07:30:02.607Z,19.30
2018-06-18T07:32:31.047Z,19.20
2018-06-18T07:34:59.531Z,19.40
2018-06-18T07:37:27.999Z,19.40
2018-06-18T07:39:56.591Z,19.50
2018-06-18T07:42:25.044Z,19.80
2018-06-18T07:44:53.526Z,19.60
2018-06-18T07:47:21.978Z,19.40
2018-06-18T07:49:50.447Z,19.70
2018-06-18T07:52:18.893Z,19.80
2018-06-18T07:54:47.348Z,19.50
2018-06-18T07:57:16.087Z,19.60
2018-06-18T07:59:44.627Z,19.70
2018-06-18T08:02:13.148Z,19.80
2018-06-18T08:04:41.628Z,19.70
2018-06-18T08:07:10.117Z,20.20
2018-06-18T08:09:38.754Z,20.10
2018-06-18T08:12:07.264Z,20.40
2018-06-18T08:14:35.763Z,20.50
2018-06-18T08:17:04.719Z,20.60
2018-06-18T08:19:33.175Z,20.80
2018-06-18T08:22:01.717Z,20.60
2018-06-18T08:24:30.228Z,20.40
2018-06-18T08:26:58.738Z,20.60
2018-06-18T08:29:27.199Z,20.60
2018-06-18T08:31:55.688Z,20.50
2018-06-18T08:34:24.216Z,20.60
2018-06-18T08:36:52.755Z,20.40
2018-06-18T08:39:21.249Z,20.60
2018-06-18T08:41:49.756Z,20.90
2018-06-18T08:44:18.183Z,21.30
2018-06-18T08:46:46.685Z,21.40
2018-06-18T08:49:15.187Z,21.00
2018-06-18T08:51:48.939Z,20.90
2018-06-18T08:54:22.729Z,21.00
2018-06-18T08:56:56.389Z,20.60
2018-06-18T08:59:30.107Z,21.00
2018-06-18T09:01:58.602Z,20.50
2018-06-18T09:04:32.355Z,20.90
2018-06-18T09:07:08.045Z,20.90
2018-06-18T09:09:36.511Z,20.90
2018-06-18T09:14:33.222Z,21.10
2018-06-18T09:17:01.684Z,21.30
2018-06-18T09:19:30.167Z,21.50
2018-06-18T09:21:58.670Z,21.80
2018-06-18T09:24:33.163Z,21.60
2018-06-18T09:27:06.918Z,21.70
2018-06-18T09:37:03.356Z,22.10
2018-06-18T09:42:01.017Z,22.60
2018-06-18T09:44:29.476Z,22.40
2018-06-18T09:46:58.299Z,22.20
2018-06-18T09:49:32.158Z,22.30
2018-06-18T09:53:08.259Z,22.30
2018-06-18T09:55:42.123Z,22.50
2018-06-18T09:58:16.004Z,23.30
2018-06-18T10:01:03.975Z,23.40
2018-06-18T10:03:32.992Z,23.10
2018-06-18T10:06:02.716Z,22.50
2018-06-18T10:08:31.181Z,22.10
2018-06-18T10:10:59.599Z,22.20
2018-06-18T10:13:28.078Z,22.60
2018-06-18T10:15:56.760Z,22.70
2018-06-18T10:20:53.448Z,22.90
2018-06-18T10:23:21.914Z,22.90
2018-06-18T10:25:50.420Z,22.70
2018-06-18T10:28:18.835Z,22.80
2018-06-18T10:30:47.339Z,23.20
2018-06-18T10:33:21.143Z,23.50
2018-06-18T10:35:55.039Z,23.60
2018-06-18T10:38:28.832Z,23.00
2018-06-18T10:41:02.628Z,22.80
2018-06-18T10:43:33.335Z,22.50
2018-06-18T10:46:01.789Z,22.90
2018-06-18T10:48:30.360Z,23.20
2018-06-18T10:50:58.893Z,23.30
2018-06-18T10:53:27.340Z,23.30
2018-06-18T10:55:56.605Z,23.20
2018-06-18T10:58:25.110Z,23.20
2018-06-18T11:00:58.681Z,23.80
2018-06-18T11:03:27.849Z,23.90
2018-06-18T11:06:01.651Z,23.60
2018-06-18T11:08:30.103Z,23.20
2018-06-18T11:10:58.835Z,22.70
2018-06-18T11:13:27.765Z,23.00
2018-06-18T11:15:56.272Z,23.10
2018-06-18T11:21:03.440Z,23.90
2018-06-18T11:23:37.238Z,24.30
2018-06-18T11:26:10.991Z,24.30
2018-06-18T11:28:39.557Z,24.30
2018-06-18T11:31:08.042Z,23.70
2018-06-18T11:33:36.491Z,23.40
2018-06-18T11:36:05.039Z,23.20
2018-06-18T11:38:33.604Z,23.10
2018-06-18T11:43:30.197Z,23.30
2018-06-18T11:45:58.632Z,23.60
2018-06-18T11:48:27.125Z,23.50
2018-06-18T11:50:55.903Z,23.30
2018-06-18T11:53:24.341Z,23.60
2018-06-18T11:55:52.830Z,23.40
2018-06-18T11:58:26.715Z,23.50
2018-06-18T12:06:12.545Z,23.40
2018-06-18T12:08:46.243Z,24.00
2018-06-18T12:11:23.453Z,24.30
2018-06-18T12:13:51.935Z,23.80
2018-06-18T12:16:20.396Z,24.00
2018-06-18T12:18:48.832Z,24.10
2018-06-18T12:21:17.244Z,24.00
2018-06-18T12:23:45.659Z,23.60
2018-06-18T12:26:14.074Z,23.70
2018-06-18T12:28:42.549Z,23.70
2018-06-18T12:31:11.031Z,23.70
2018-06-18T12:33:39.562Z,23.90
2018-06-18T12:36:08.842Z,23.80
2018-06-18T12:38:37.303Z,24.20
2018-06-18T12:41:05.852Z,24.40
2018-06-18T12:47:14.258Z,23.90
2018-06-18T12:49:48.194Z,24.10
2018-06-18T12:52:22.951Z,24.30
2018-06-18T12:54:56.769Z,24.50
2018-06-18T12:57:25.260Z,24.60
2018-06-18T12:59:53.786Z,24.20
2018-06-18T13:02:27.290Z,24.00
2018-06-18T13:05:01.738Z,24.40
2018-06-18T13:07:30.279Z,23.90
2018-06-18T13:09:59.091Z,24.00
2018-06-18T13:12:27.927Z,24.10
2018-06-18T13:14:56.478Z,23.80
2018-06-18T13:17:24.989Z,23.90
2018-06-18T13:19:53.471Z,23.90
2018-06-18T13:22:21.934Z,24.20
2018-06-18T13:24:50.401Z,24.10
2018-06-18T13:27:18.953Z,24.10
2018-06-18T13:29:47.375Z,24.40
2018-06-18T13:32:15.878Z,24.50
2018-06-18T13:34:44.296Z,25.00
2018-06-18T13:37:18.053Z,24.60
2018-06-18T13:39:52.572Z,24.30
2018-06-18T13:42:26.467Z,24.30
2018-06-18T13:45:00.245Z,24.10
2018-06-18T13:47:34.091Z,23.80
2018-06-18T13:50:02.615Z,24.20
2018-06-18T13:52:31.087Z,24.70
2018-06-18T13:54:59.554Z,24.80
2018-06-18T13:57:28.008Z,24.90
2018-06-18T13:59:56.462Z,24.90
2018-06-18T14:02:24.943Z,25.00
2018-06-18T14:04:53.386Z,24.60
2018-06-18T14:07:21.839Z,24.70
2018-06-18T14:09:50.255Z,24.90
2018-06-18T14:12:18.915Z,25.20
2018-06-18T14:14:47.343Z,25.00
2018-06-18T14:17:15.785Z,24.90
2018-06-18T14:19:49.756Z,25.20
2018-06-18T14:22:18.152Z,25.00
2018-06-18T14:24:46.573Z,24.80
2018-06-18T14:27:15.028Z,25.10
2018-06-18T14:29:48.756Z,25.40
2018-06-18T14:32:22.553Z,25.00
2018-06-18T14:34:56.491Z,25.00
2018-06-18T14:37:30.263Z,25.20
2018-06-18T14:40:02.499Z,25.10
2018-06-18T14:42:30.975Z,25.00
2018-06-18T14:44:59.480Z,25.00
2018-06-18T14:47:27.919Z,24.70
2018-06-18T14:49:56.502Z,24.50
2018-06-18T14:52:25.048Z,24.80
2018-06-18T14:54:53.411Z,24.90
2018-06-18T14:57:21.859Z,24.80
2018-06-18T14:59:57.403Z,24.50
2018-06-18T15:02:25.861Z,24.40
2018-06-18T15:04:54.438Z,24.50
2018-06-18T15:07:22.858Z,24.60
2018-06-18T15:12:21.205Z,24.50
2018-06-18T15:14:55.047Z,24.40
2018-06-18T15:17:23.504Z,24.20
2018-06-18T15:19:52.095Z,24.50
2018-06-18T15:22:20.811Z,24.20
2018-06-18T15:24:54.662Z,24.60
2018-06-18T15:27:23.093Z,24.90
2018-06-18T15:32:19.990Z,24.90
2018-06-18T15:34:48.453Z,24.90
2018-06-18T15:37:16.897Z,24.90
2018-06-18T15:39:45.496Z,24.80
2018-06-18T15:42:14.012Z,24.90
2018-06-18T15:44:42.517Z,25.10
2018-06-18T15:47:11.043Z,24.90
2018-06-18T15:49:39.675Z,24.90
2018-06-18T15:52:08.084Z,24.70
2018-06-18T15:54:36.579Z,24.90
2018-06-18T15:57:05.103Z,24.80
2018-06-18T15:59:33.573Z,24.90
2018-06-18T16:02:02.072Z,24.70
2018-06-18T16:04:30.551Z,24.70
2018-06-18T16:06:58.981Z,24.80
2018-06-18T16:09:27.544Z,24.60
2018-06-18T16:11:56.080Z,24.40
2018-06-18T16:14:24.503Z,24.50
2018-06-18T16:16:52.963Z,24.00
2018-06-18T16:19:21.370Z,24.10
2018-06-18T16:21:49.801Z,24.20
2018-06-18T16:24:18.324Z,24.30
2018-06-18T16:26:46.755Z,24.40
2018-06-18T16:29:15.227Z,24.80
2018-06-18T16:31:43.668Z,24.60
2018-06-18T16:34:12.168Z,24.50
2018-06-18T16:36:40.691Z,24.40
2018-06-18T16:39:11.087Z,24.50
2018-06-18T16:41:39.694Z,24.40
2018-06-18T16:44:08.918Z,24.20
2018-06-18T16:46:38.239Z,24.50
2018-06-18T16:49:06.961Z,24.40
2018-06-18T16:51:35.395Z,24.40
2018-06-18T16:54:03.851Z,24.40
2018-06-18T16:56:32.299Z,24.30
2018-06-18T16:59:00.692Z,24.30
2018-06-18T17:01:29.112Z,24.30
2018-06-18T17:03:57.501Z,24.20
2018-06-18T17:06:25.925Z,24.30
2018-06-18T17:08:54.364Z,24.40
2018-06-18T17:11:22.826Z,24.30
2018-06-18T17:13:51.221Z,24.10
2018-06-18T17:16:19.663Z,23.80
2018-06-18T17:18:48.055Z,23.80
2018-06-18T17:21:16.509Z,23.90
2018-06-18T17:23:44.951Z,23.80
2018-06-18T17:26:13.423Z,23.70
2018-06-18T17:28:41.873Z,23.90
2018-06-18T17:31:10.410Z,23.80
2018-06-18T17:33:38.912Z,23.80
2018-06-18T17:36:07.497Z,23.60
2018-06-18T17:38:35.941Z,23.70
2018-06-18T17:41:04.422Z,23.60
2018-06-18T17:43:32.871Z,23.50
2018-06-18T17:46:01.287Z,23.50
2018-06-18T17:48:29.924Z,23.60
2018-06-18T17:53:26.540Z,23.40
2018-06-18T17:55:55.010Z,23.30
2018-06-18T17:58:23.526Z,23.20
2018-06-18T18:00:51.939Z,23.30
2018-06-18T18:03:20.415Z,23.40
2018-06-18T18:05:48.820Z,23.30
2018-06-18T18:08:17.233Z,23.30
2018-06-18T18:10:45.740Z,23.40
2018-06-18T18:13:14.177Z,23.40
2018-06-18T18:15:42.681Z,23.60
2018-06-18T18:18:11.185Z,23.30
2018-06-18T18:20:39.643Z,23.10
2018-06-18T18:23:08.088Z,22.90
2018-06-18T18:25:36.503Z,22.90
2018-06-18T18:28:05.078Z,22.80
2018-06-18T18:30:33.480Z,22.70
2018-06-18T18:33:01.915Z,22.40
2018-06-18T18:35:30.790Z,22.30
2018-06-18T18:37:59.244Z,22.10
2018-06-18T18:40:27.659Z,21.90
2018-06-18T18:42:56.101Z,21.80
2018-06-18T18:45:24.639Z,21.70
2018-06-18T18:47:53.045Z,21.60
2018-06-18T18:50:21.519Z,21.60
2018-06-18T18:52:49.947Z,21.60
2018-06-18T18:55:31.600Z,21.60
2018-06-18T18:58:12.563Z,21.60
2018-06-18T19:00:41.260Z,21.60
2018-06-18T19:03:09.691Z,21.40
2018-06-18T19:05:38.172Z,21.50
2018-06-18T19:08:07.080Z,21.40
2018-06-18T19:10:37.559Z,21.40
2018-06-18T19:13:13.024Z,21.40
2018-06-18T19:15:41.511Z,21.30
2018-06-18T19:18:10.432Z,21.20
2018-06-18T19:21:11.164Z,21.20
2018-06-18T19:23:39.734Z,21.10
2018-06-18T19:26:08.250Z,21.10
2018-06-18T19:28:37.339Z,21.10
2018-06-18T19:31:10.663Z,21.10
2018-06-18T19:33:56.907Z,21.10
2018-06-18T19:36:25.383Z,21.10
2018-06-18T19:38:53.818Z,21.00
2018-06-18T19:41:22.328Z,21.00
2018-06-18T19:43:50.771Z,20.90
2018-06-18T19:46:22.535Z,20.90
2018-06-18T19:48:55.455Z,20.70
2018-06-18T19:53:52.672Z,20.70
2018-06-18T19:56:21.226Z,20.70
2018-06-18T19:58:49.576Z,20.60
2018-06-18T20:01:18.032Z,20.60
2018-06-18T20:03:46.456Z,20.60
2018-06-18T20:06:14.901Z,20.60
2018-06-18T20:08:43.407Z,20.60
2018-06-18T20:11:11.871Z,20.50
2018-06-18T20:13:40.339Z,20.50
2018-06-18T20:16:08.820Z,20.60
2018-06-18T20:18:37.236Z,20.50
2018-06-18T20:21:05.701Z,20.50
2018-06-18T20:23:34.123Z,20.50
2018-06-18T20:26:05.492Z,20.40
2018-06-18T20:28:33.951Z,20.30
2018-06-18T20:31:02.405Z,20.30
2018-06-18T20:33:32.194Z,20.20
2018-06-18T20:36:03.966Z,20.30
2018-06-18T20:38:32.397Z,20.20
2018-06-18T20:41:00.840Z,20.20
2018-06-18T20:43:33.040Z,20.10
2018-06-18T20:46:01.515Z,20.10
2018-06-18T20:48:29.928Z,20.10
2018-06-18T20:50:58.348Z,20.10
2018-06-18T20:53:26.758Z,20.10
2018-06-18T20:55:55.191Z,20.10
2018-06-18T20:58:23.596Z,20.00
2018-06-18T21:00:54.895Z,19.90
2018-06-18T21:03:23.324Z,19.90
2018-06-18T21:05:58.469Z,19.90
2018-06-18T21:08:26.924Z,19.90
2018-06-18T21:10:55.385Z,19.90
2018-06-18T21:13:23.847Z,19.90
2018-06-18T21:15:52.298Z,19.80
2018-06-18T21:18:20.735Z,19.80
2018-06-18T21:20:49.232Z,19.80
2018-06-18T21:23:17.937Z,19.70
2018-06-18T21:25:46.527Z,19.70
2018-06-18T21:28:15.013Z,19.70
2018-06-18T21:30:43.437Z,19.60
2018-06-18T21:33:11.899Z,19.50
2018-06-18T21:35:43.191Z,19.50
2018-06-18T21:38:11.633Z,19.50
2018-06-18T21:40:40.041Z,19.40
2018-06-18T21:43:08.523Z,19.40
2018-06-18T21:45:36.924Z,19.40
2018-06-18T21:48:05.388Z,19.30
2018-06-18T21:50:34.879Z,19.20
2018-06-18T21:53:03.311Z,19.20
2018-06-18T21:55:31.751Z,19.10
2018-06-18T21:58:00.176Z,19.10
2018-06-18T22:00:33.128Z,19.10
2018-06-18T22:05:29.674Z,19.00
2018-06-18T22:07:58.143Z,19.00
2018-06-18T22:10:26.596Z,19.00
2018-06-18T22:12:55.052Z,18.90
2018-06-18T22:15:23.533Z,18.90
2018-06-18T22:17:52.011Z,18.80
2018-06-18T22:20:20.454Z,18.90
2018-06-18T22:22:49.026Z,18.80
2018-06-18T22:25:17.488Z,18.80
2018-06-18T22:27:45.956Z,18.70
2018-06-18T22:30:14.444Z,18.70
2018-06-18T22:32:42.880Z,18.60
2018-06-18T22:35:12.262Z,18.70
2018-06-18T22:37:40.845Z,18.70
2018-06-18T22:40:09.315Z,18.70
2018-06-18T22:42:37.863Z,18.70
2018-06-18T22:45:08.556Z,18.60
2018-06-18T22:47:37.018Z,18.60
2018-06-18T22:50:05.487Z,18.50
2018-06-18T22:52:33.902Z,18.40
2018-06-18T22:55:02.375Z,18.30
2018-06-18T22:57:30.877Z,18.30
2018-06-18T22:59:59.509Z,18.30
2018-06-18T23:02:29.928Z,18.20
2018-06-18T23:04:58.418Z,18.20
2018-06-18T23:07:26.847Z,18.30
2018-06-18T23:09:55.408Z,18.30
2018-06-18T23:12:29.531Z,18.30
2018-06-18T23:14:58.037Z,18.20
2018-06-18T23:17:26.499Z,18.20
2018-06-18T23:19:54.924Z,18.10
2018-06-18T23:22:23.360Z,18.10
2018-06-18T23:24:51.803Z,18.10
2018-06-18T23:27:20.215Z,18.10
2018-06-18T23:29:48.688Z,18.10
2018-06-18T23:32:17.120Z,18.00
2018-06-18T23:34:45.591Z,18.10
2018-06-18T23:37:14.002Z,18.10
2018-06-18T23:39:42.516Z,18.10
2018-06-18T23:42:11.829Z,18.10
2018-06-18T23:44:42.068Z,18.10
2018-06-18T23:47:12.001Z,18.00
2018-06-18T23:49:41.653Z,18.00
2018-06-18T23:52:11.914Z,17.90
2018-06-18T23:54:42.917Z,17.80
2018-06-18T23:57:11.459Z,17.80
2018-06-18T23:59:40.159Z,17.80
